Time;durP1;ratioP1;P1;durP2;ratioP2;P2;SDS_P1;SDS_P2;PMS_P1;PMS_P2;Temp;Humidity;BMP_temperature;BMP_pressure;BME280_temperature;BME280_humidity;BME280_pressure;Samples;Min_cycle;Max_cycle;Signal;HPM_P1;HPM_P2
2022/03/28 00:00:33;;;;;;;20.15;10.40;;;15.90;69.90;;;;;;4974732;28;20417;-60
2022/03/28 00:02:58;;;;;;;22.35;9.63;;;15.90;70.00;;;;;;4975233;28;20081;-65
2022/03/28 00:05:24;;;;;;;20.80;9.32;;;15.90;70.00;;;;;;4974949;28;20034;-65
2022/03/28 00:07:50;;;;;;;23.13;10.75;;;15.90;70.10;;;;;;4975114;28;20029;-65
2022/03/28 00:10:15;;;;;;;18.58;10.25;;;15.90;70.00;;;;;;4974770;28;20473;-64
2022/03/28 00:12:42;;;;;;;19.05;9.98;;;15.90;69.90;;;;;;4975107;28;20484;-66
2022/03/28 00:15:09;;;;;;;19.85;9.88;;;15.80;69.70;;;;;;4974329;28;20439;-62
2022/03/28 00:17:36;;;;;;;18.90;9.85;;;15.80;69.70;;;;;;4974538;28;20476;-61
2022/03/28 00:20:06;;;;;;;18.13;9.07;;;15.70;70.00;;;;;;4974552;28;20042;-64
2022/03/28 00:22:32;;;;;;;21.42;10.15;;;15.70;70.10;;;;;;4974792;28;20114;-62
2022/03/28 00:24:58;;;;;;;20.95;10.63;;;15.70;70.20;;;;;;4974610;28;20464;-64
2022/03/28 00:27:24;;;;;;;20.70;10.50;;;15.70;70.20;;;;;;4974705;28;20365;-61
2022/03/28 00:29:49;;;;;;;21.00;10.55;;;15.70;69.90;;;;;;4974462;28;20538;-65
2022/03/28 00:32:15;;;;;;;19.80;9.43;;;15.70;70.10;;;;;;4974576;28;20030;-61
2022/03/28 00:34:40;;;;;;;18.30;9.45;;;15.70;70.10;;;;;;4974458;28;20023;-65
2022/03/28 00:37:07;;;;;;;15.95;9.32;;;15.70;70.30;;;;;;4974245;28;20014;-63
2022/03/28 00:39:32;;;;;;;17.98;9.38;;;15.70;70.60;;;;;;4974390;28;20034;-66
2022/03/28 00:41:58;;;;;;;20.00;9.57;;;15.70;70.70;;;;;;4974643;28;20026;-65
2022/03/28 00:44:23;;;;;;;21.20;9.88;;;15.60;70.80;;;;;;4974243;28;20027;-65
2022/03/28 00:46:49;;;;;;;19.00;9.43;;;15.60;70.50;;;;;;4974147;28;20492;-65
2022/03/28 00:49:16;;;;;;;17.92;9.13;;;15.60;70.70;;;;;;4956986;28;20039;-63
2022/03/28 00:51:42;;;;;;;19.23;9.73;;;15.60;70.90;;;;;;4974385;28;20396;-59
2022/03/28 00:54:08;;;;;;;19.20;9.25;;;15.50;70.90;;;;;;4974268;28;20023;-64
2022/03/28 00:56:36;;;;;;;21.67;10.13;;;15.50;70.90;;;;;;4974111;28;20061;-63
2022/03/28 00:59:02;;;;;;;22.48;9.95;;;15.50;70.60;;;;;;4974066;28;20033;-65
2022/03/28 01:01:28;;;;;;;19.55;9.25;;;15.50;70.40;;;;;;4974283;28;20027;-63
2022/03/28 01:03:54;;;;;;;17.95;8.93;;;15.50;70.80;;;;;;4974535;28;20022;-65
2022/03/28 01:06:20;;;;;;;17.58;8.98;;;15.50;70.70;;;;;;4977017;28;20447;-66
2022/03/28 01:08:45;;;;;;;18.55;9.18;;;15.50;70.80;;;;;;4978426;28;20435;-65
2022/03/28 01:11:12;;;;;;;20.27;9.77;;;15.40;70.90;;;;;;4978047;28;20054;-59
2022/03/28 01:13:40;;;;;;;20.90;9.75;;;15.40;70.90;;;;;;4977895;28;20015;-65
2022/03/28 01:16:07;;;;;;;20.27;9.25;;;15.40;70.80;;;;;;4978022;28;20555;-66
2022/03/28 01:18:33;;;;;;;21.90;10.50;;;15.40;71.00;;;;;;4977855;28;20037;-66
2022/03/28 01:21:03;;;;;;;15.35;9.10;;;15.30;71.10;;;;;;4978060;28;20023;-65
2022/03/28 01:23:29;;;;;;;18.08;10.20;;;15.30;71.30;;;;;;4977983;28;20027;-64
2022/03/28 01:25:56;;;;;;;22.33;10.55;;;15.30;71.30;;;;;;4977508;28;20062;-65
2022/03/28 01:28:27;;;;;;;19.42;9.65;;;15.30;71.30;;;;;;4977966;28;20433;-66
2022/03/28 01:30:54;;;;;;;17.45;9.15;;;15.30;71.30;;;;;;4978043;28;20019;-63
2022/03/28 01:33:20;;;;;;;18.25;10.68;;;15.20;71.40;;;;;;4977776;28;20116;-60
2022/03/28 01:35:46;;;;;;;15.57;9.52;;;15.20;71.20;;;;;;4977707;28;20023;-65
2022/03/28 01:38:14;;;;;;;20.20;9.73;;;15.20;71.30;;;;;;4977723;28;20035;-65
2022/03/28 01:40:45;;;;;;;21.33;10.10;;;15.20;71.00;;;;;;4977472;28;20110;-60
2022/03/28 01:43:11;;;;;;;17.92;10.23;;;15.20;71.10;;;;;;4977534;28;20034;-61
2022/03/28 01:45:37;;;;;;;17.45;9.98;;;15.20;70.90;;;;;;4977398;28;20031;-65
2022/03/28 01:48:02;;;;;;;15.82;9.52;;;15.20;71.10;;;;;;4977467;28;20034;-65
2022/03/28 01:50:28;;;;;;;21.02;10.40;;;15.20;71.20;;;;;;4977262;28;20427;-64
2022/03/28 01:52:54;;;;;;;15.32;9.52;;;15.20;71.20;;;;;;4977421;28;20069;-65
2022/03/28 01:55:19;;;;;;;15.88;9.93;;;15.10;71.20;;;;;;4977057;28;20026;-65
2022/03/28 01:57:45;;;;;;;16.15;9.75;;;15.10;71.10;;;;;;4977488;28;20476;-66
2022/03/28 02:00:17;;;;;;;22.85;9.93;;;15.10;71.20;;;;;;4977334;28;20070;-65
2022/03/28 02:02:45;;;;;;;21.73;10.35;;;15.10;71.30;;;;;;4977209;28;20022;-62
2022/03/28 02:05:12;;;;;;;17.35;10.20;;;15.10;71.20;;;;;;4977118;28;20022;-65
2022/03/28 02:07:42;;;;;;;18.55;9.60;;;15.00;71.30;;;;;;4977044;28;20023;-65
2022/03/28 02:10:09;;;;;;;18.13;9.73;;;15.00;71.40;;;;;;4976916;28;20031;-65
2022/03/28 02:12:35;;;;;;;19.65;10.68;;;15.00;71.30;;;;;;4976866;28;20492;-65
2022/03/28 02:15:01;;;;;;;19.23;10.73;;;15.00;70.90;;;;;;4977294;28;20431;-66
2022/03/28 02:17:27;;;;;;;25.55;10.38;;;15.00;71.10;;;;;;4976863;28;20050;-64
2022/03/28 02:19:52;;;;;;;17.65;9.88;;;14.90;71.40;;;;;;4976888;28;20062;-64
2022/03/28 02:22:18;;;;;;;20.17;10.88;;;15.00;71.40;;;;;;4976822;28;20023;-65
2022/03/28 02:24:43;;;;;;;23.10;11.13;;;14.90;71.50;;;;;;4976467;28;20042;-61
2022/03/28 02:27:09;;;;;;;17.55;10.13;;;14.90;71.60;;;;;;4976675;28;20054;-66
2022/03/28 02:29:35;;;;;;;22.63;10.82;;;14.90;71.70;;;;;;4977020;28;20033;-64
2022/03/28 02:32:01;;;;;;;17.40;10.68;;;14.90;71.80;;;;;;4959304;28;20117;-65
2022/03/28 02:34:28;;;;;;;18.52;9.70;;;14.90;72.50;;;;;;4976704;28;20362;-65
2022/03/28 02:36:53;;;;;;;19.42;10.18;;;14.80;71.80;;;;;;4976582;28;20046;-64
2022/03/28 02:39:19;;;;;;;16.42;9.63;;;14.90;71.80;;;;;;4976205;28;20192;-65
2022/03/28 02:41:44;;;;;;;17.17;9.90;;;14.90;71.80;;;;;;4976614;28;20488;-65
2022/03/28 02:44:10;;;;;;;18.58;10.40;;;14.80;71.70;;;;;;4976485;28;20023;-65
2022/03/28 02:46:36;;;;;;;20.98;10.48;;;14.70;71.80;;;;;;4976409;28;20058;-65
2022/03/28 02:49:02;;;;;;;21.40;10.15;;;14.70;72.00;;;;;;4976524;28;20022;-65
2022/03/28 02:51:27;;;;;;;20.17;10.50;;;14.70;71.90;;;;;;4976396;28;20031;-65
2022/03/28 02:53:53;;;;;;;21.83;10.38;;;14.70;72.10;;;;;;4976017;28;20097;-60
2022/03/28 02:56:18;;;;;;;19.27;9.43;;;14.70;72.10;;;;;;4976342;28;20027;-65
2022/03/28 02:58:44;;;;;;;20.60;10.52;;;14.70;72.30;;;;;;4976264;28;20029;-65
2022/03/28 03:01:09;;;;;;;23.38;10.85;;;14.70;72.10;;;;;;4976372;28;20034;-64
2022/03/28 03:03:35;;;;;;;18.85;9.50;;;14.70;72.10;;;;;;4976120;28;20443;-64
2022/03/28 03:06:00;;;;;;;19.88;9.35;;;14.70;72.20;;;;;;4976187;28;20556;-66
2022/03/28 03:08:26;;;;;;;17.70;8.63;;;14.60;72.30;;;;;;4975759;28;20034;-65
2022/03/28 03:10:51;;;;;;;19.73;10.02;;;14.60;72.30;;;;;;4976071;28;20026;-65
2022/03/28 03:13:17;;;;;;;21.67;11.05;;;14.60;72.50;;;;;;4975927;28;20543;-59
2022/03/28 03:15:42;;;;;;;19.58;9.57;;;14.60;72.30;;;;;;4975855;28;20361;-63
2022/03/28 03:18:08;;;;;;;22.02;9.95;;;14.50;72.40;;;;;;4980757;28;20131;-65
2022/03/28 03:20:34;;;;;;;21.75;9.65;;;14.50;72.40;;;;;;4974186;28;20089;-61
2022/03/28 03:23:00;;;;;;;20.63;10.25;;;14.50;72.50;;;;;;4973225;28;20042;-63
2022/03/28 03:25:26;;;;;;;21.95;9.77;;;14.50;72.50;;;;;;4975230;28;20055;-64
2022/03/28 03:27:52;;;;;;;24.75;11.45;;;14.40;72.70;;;;;;4975406;28;20023;-65
2022/03/28 03:30:19;;;;;;;19.95;11.00;;;14.40;72.80;;;;;;4975645;28;20031;-56
2022/03/28 03:32:45;;;;;;;22.17;10.23;;;14.50;73.00;;;;;;4975454;28;20027;-65
2022/03/28 03:35:11;;;;;;;21.10;9.73;;;14.40;73.00;;;;;;4975466;28;20548;-65
2022/03/28 03:37:37;;;;;;;20.08;9.65;;;14.40;73.00;;;;;;4975101;28;20023;-63
2022/03/28 03:40:04;;;;;;;22.50;9.65;;;14.40;73.00;;;;;;4975431;28;20027;-66
2022/03/28 03:42:31;;;;;;;25.40;10.27;;;14.50;72.70;;;;;;4975294;28;20031;-65
2022/03/28 03:44:57;;;;;;;16.80;10.13;;;14.70;72.30;;;;;;4975439;28;20057;-63
2022/03/28 03:47:23;;;;;;;19.60;10.60;;;14.70;71.80;;;;;;4975381;28;20062;-66
2022/03/28 03:49:48;;;;;;;19.83;9.70;;;14.70;71.60;;;;;;4975104;28;20038;-67
2022/03/28 03:52:14;;;;;;;25.30;10.50;;;14.70;71.50;;;;;;4974972;28;20031;-66
2022/03/28 03:54:40;;;;;;;20.67;10.07;;;14.70;71.60;;;;;;4975364;28;20033;-64
2022/03/28 03:57:05;;;;;;;20.92;9.98;;;14.70;71.50;;;;;;4975335;28;20464;-67
2022/03/28 03:59:31;;;;;;;22.75;10.73;;;14.80;71.50;;;;;;4974957;28;20046;-65
2022/03/28 04:01:56;;;;;;;20.27;9.70;;;14.70;71.40;;;;;;4975176;28;20034;-67
2022/03/28 04:04:22;;;;;;;18.50;8.57;;;14.70;71.40;;;;;;4974962;28;20026;-66
2022/03/28 04:06:48;;;;;;;18.42;9.63;;;14.70;71.40;;;;;;4974656;28;20066;-66
2022/03/28 04:09:14;;;;;;;19.23;8.95;;;14.70;71.30;;;;;;4974932;28;20038;-66
2022/03/28 04:11:39;;;;;;;22.38;9.25;;;14.70;71.40;;;;;;4975045;28;20033;-66
2022/03/28 04:14:05;;;;;;;20.00;9.63;;;14.60;71.50;;;;;;4974895;28;20018;-66
2022/03/28 04:16:30;;;;;;;15.52;8.95;;;14.60;71.30;;;;;;4974718;28;20476;-66
2022/03/28 04:18:56;;;;;;;18.45;9.15;;;14.60;71.40;;;;;;4974618;28;20039;-66
2022/03/28 04:21:22;;;;;;;20.55;9.40;;;14.60;71.40;;;;;;4974411;28;20023;-66
2022/03/28 04:23:47;;;;;;;17.35;8.80;;;14.60;71.50;;;;;;4974524;28;20030;-66
2022/03/28 04:26:14;;;;;;;18.98;9.35;;;14.50;71.40;;;;;;4974524;28;20042;-66
2022/03/28 04:28:39;;;;;;;20.13;9.60;;;14.50;71.60;;;;;;4974830;28;20027;-65
2022/03/28 04:31:05;;;;;;;17.13;9.73;;;14.50;71.50;;;;;;4974475;28;20050;-66
2022/03/28 04:33:30;;;;;;;28.55;11.02;;;14.50;71.60;;;;;;4974714;28;20079;-60
2022/03/28 04:35:56;;;;;;;26.40;10.98;;;14.50;71.80;;;;;;4974077;28;20491;-66
2022/03/28 04:38:24;;;;;;;24.05;9.35;;;14.50;72.20;;;;;;4974714;28;20025;-66
2022/03/28 04:40:51;;;;;;;22.20;10.45;;;14.50;72.20;;;;;;4973649;28;20088;-65
2022/03/28 04:43:16;;;;;;;22.75;9.93;;;14.50;72.20;;;;;;4974643;28;20041;-66
2022/03/28 04:45:42;;;;;;;22.20;10.95;;;14.50;72.20;;;;;;4974164;28;20137;-66
2022/03/28 04:48:07;;;;;;;23.08;10.52;;;14.40;72.20;;;;;;4974487;28;20027;-65
2022/03/28 04:50:33;;;;;;;21.00;10.10;;;14.40;72.10;;;;;;4973787;28;20551;-66
2022/03/28 04:52:59;;;;;;;25.35;10.45;;;14.40;72.10;;;;;;4974679;28;20050;-66
2022/03/28 04:55:25;;;;;;;19.10;10.30;;;14.40;72.50;;;;;;4974286;28;20405;-67
2022/03/28 04:57:51;;;;;;;20.52;9.32;;;14.40;72.20;;;;;;4974362;28;20077;-65
2022/03/28 05:00:17;;;;;;;22.48;9.70;;;14.30;72.70;;;;;;4974400;28;20073;-62
2022/03/28 05:02:42;;;;;;;26.13;11.10;;;14.30;72.10;;;;;;4987540;28;20033;-66
2022/03/28 05:05:08;;;;;;;21.70;9.50;;;14.30;72.30;;;;;;4992520;28;20034;-63
2022/03/28 05:07:35;;;;;;;21.45;10.57;;;14.30;72.20;;;;;;4992196;28;20036;-62
2022/03/28 05:10:01;;;;;;;16.90;8.68;;;14.30;72.40;;;;;;4993617;28;20460;-65
2022/03/28 05:12:27;;;;;;;18.02;9.27;;;14.30;72.50;;;;;;4993653;28;20033;-65
2022/03/28 05:14:54;;;;;;;25.75;9.55;;;14.30;72.40;;;;;;4993086;28;20097;-66
2022/03/28 05:17:24;;;;;;;20.02;9.70;;;14.30;72.30;;;;;;4993198;28;20034;-64
2022/03/28 05:19:50;;;;;;;24.80;9.90;;;14.30;72.30;;;;;;4993016;28;20419;-66
2022/03/28 05:22:17;;;;;;;19.10;10.82;;;14.30;72.40;;;;;;4993553;28;20023;-66
2022/03/28 05:24:43;;;;;;;19.25;11.25;;;14.20;72.60;;;;;;4993313;28;20065;-65
2022/03/28 05:27:08;;;;;;;22.55;11.50;;;14.20;72.60;;;;;;4995155;28;20061;-64
2022/03/28 05:29:34;;;;;;;21.70;10.73;;;14.20;72.70;;;;;;4988642;28;20027;-66
2022/03/28 05:32:01;;;;;;;24.27;10.57;;;14.10;72.80;;;;;;4986964;28;20033;-66
2022/03/28 05:34:28;;;;;;;25.17;10.07;;;14.20;72.80;;;;;;4989772;28;20056;-67
2022/03/28 05:36:54;;;;;;;21.05;11.23;;;14.10;73.50;;;;;;4992573;28;20023;-65
2022/03/28 05:39:20;;;;;;;22.55;10.93;;;14.00;73.90;;;;;;4993241;28;20499;-65
2022/03/28 05:41:45;;;;;;;17.98;9.57;;;13.90;74.40;;;;;;4991772;28;20116;-65
2022/03/28 05:44:12;;;;;;;25.08;10.82;;;13.90;74.70;;;;;;4988560;28;20054;-65
2022/03/28 05:46:37;;;;;;;24.23;10.48;;;13.90;75.00;;;;;;4974732;28;20552;-63
2022/03/28 05:49:03;;;;;;;20.27;10.20;;;13.80;75.10;;;;;;4989079;28;20121;-66
2022/03/28 05:51:28;;;;;;;27.23;10.57;;;13.80;74.90;;;;;;4993783;28;20038;-66
2022/03/28 05:53:54;;;;;;;25.92;11.63;;;13.90;74.70;;;;;;4995048;28;20085;-62
2022/03/28 05:56:19;;;;;;;24.88;10.52;;;13.90;74.60;;;;;;4977492;28;20085;-58
2022/03/28 05:58:45;;;;;;;19.85;9.85;;;13.80;74.70;;;;;;4989368;28;20033;-60
2022/03/28 06:01:10;;;;;;;20.67;10.70;;;13.80;75.00;;;;;;4991082;28;20027;-66
2022/03/28 06:03:37;;;;;;;22.67;10.43;;;13.80;75.20;;;;;;4981194;28;20034;-66
2022/03/28 06:06:04;;;;;;;29.88;10.85;;;13.80;75.40;;;;;;4987877;28;20037;-66
2022/03/28 06:08:30;;;;;;;29.27;11.48;;;13.80;75.30;;;;;;4991471;28;20277;-66
2022/03/28 06:10:55;;;;;;;30.63;11.02;;;13.80;75.50;;;;;;4994796;28;20026;-64
2022/03/28 06:13:21;;;;;;;37.28;11.70;;;13.70;75.60;;;;;;4995218;28;20472;-66
2022/03/28 06:15:48;;;;;;;33.45;11.48;;;13.70;76.00;;;;;;4992377;28;20089;-66
2022/03/28 06:18:13;;;;;;;32.03;12.20;;;13.70;76.50;;;;;;4992776;28;20330;-63
2022/03/28 06:20:39;;;;;;;30.13;11.57;;;13.70;76.60;;;;;;4993656;28;20026;-65
2022/03/28 06:23:04;;;;;;;26.40;10.20;;;13.70;76.80;;;;;;4991468;28;20519;-66
2022/03/28 06:25:30;;;;;;;26.35;10.27;;;13.70;76.90;;;;;;4992172;28;20026;-56
2022/03/28 06:27:56;;;;;;;21.25;10.35;;;13.60;77.10;;;;;;4991186;28;20468;-53
2022/03/28 06:30:22;;;;;;;26.73;10.45;;;13.60;77.20;;;;;;4974170;28;20684;-64
2022/03/28 06:32:47;;;;;;;24.88;9.98;;;13.60;77.10;;;;;;4991454;28;20023;-66
2022/03/28 06:35:13;;;;;;;32.85;12.10;;;13.60;77.20;;;;;;4986639;28;20057;-65
2022/03/28 06:37:39;;;;;;;24.92;11.80;;;13.60;77.10;;;;;;4990409;28;20361;-66
2022/03/28 06:40:05;;;;;;;28.58;12.27;;;13.60;77.00;;;;;;4989557;28;20466;-66
2022/03/28 06:42:32;;;;;;;27.08;11.68;;;13.60;77.10;;;;;;4986246;28;20093;-66
2022/03/28 06:44:58;;;;;;;27.98;10.98;;;13.70;76.90;;;;;;4986804;28;20033;-63
2022/03/28 06:47:24;;;;;;;25.10;10.60;;;13.70;76.90;;;;;;4994437;28;20447;-66
2022/03/28 06:49:49;;;;;;;38.47;11.00;;;13.70;76.90;;;;;;4989271;28;20022;-64
2022/03/28 06:52:15;;;;;;;29.02;10.93;;;13.70;77.00;;;;;;4985385;28;20066;-56
2022/03/28 06:54:41;;;;;;;34.45;11.63;;;13.80;77.10;;;;;;4990269;28;20015;-65
2022/03/28 06:57:06;;;;;;;28.02;11.25;;;13.90;77.20;;;;;;4989978;28;20168;-62
2022/03/28 06:59:32;;;;;;;27.27;11.52;;;13.90;77.00;;;;;;4988566;28;20022;-66
2022/03/28 07:01:57;;;;;;;24.60;10.48;;;14.00;77.10;;;;;;4991540;28;20479;-66
2022/03/28 07:04:24;;;;;;;28.50;12.20;;;14.10;76.80;;;;;;4983880;28;20484;-65
2022/03/28 07:06:50;;;;;;;28.92;11.27;;;14.00;76.50;;;;;;4991558;28;20034;-64
2022/03/28 07:09:16;;;;;;;28.70;11.02;;;14.10;76.50;;;;;;4994069;28;20029;-67
2022/03/28 07:11:42;;;;;;;23.77;10.75;;;14.10;76.30;;;;;;4993938;28;20058;-66
2022/03/28 07:14:07;;;;;;;30.17;12.10;;;14.20;76.60;;;;;;4994464;28;20066;-67
2022/03/28 07:16:34;;;;;;;29.20;11.38;;;14.20;76.30;;;;;;4990506;28;20026;-67
2022/03/28 07:18:59;;;;;;;27.50;11.40;;;14.20;76.30;;;;;;4993204;28;20476;-67
2022/03/28 07:21:25;;;;;;;26.40;12.25;;;14.30;76.10;;;;;;4994025;28;20030;-67
2022/03/28 07:23:52;;;;;;;29.33;12.15;;;14.30;75.70;;;;;;4993590;28;20030;-67
2022/03/28 07:26:19;;;;;;;26.08;12.35;;;14.30;75.60;;;;;;4977488;28;20394;-67
2022/03/28 07:28:44;;;;;;;23.63;11.32;;;14.40;75.90;;;;;;4982550;28;20121;-67
2022/03/28 07:31:10;;;;;;;25.30;11.45;;;14.40;75.70;;;;;;4988943;28;20472;-67
2022/03/28 07:33:38;;;;;;;22.75;11.25;;;14.50;75.80;;;;;;4981767;28;20480;-66
2022/03/28 07:36:04;;;;;;;35.65;12.80;;;14.50;75.60;;;;;;4991921;28;20165;-63
2022/03/28 07:38:30;;;;;;;22.38;11.55;;;14.60;75.30;;;;;;4990410;28;20038;-65
2022/03/28 07:40:56;;;;;;;25.95;11.98;;;14.70;75.40;;;;;;4976763;28;20023;-67
2022/03/28 07:43:22;;;;;;;24.27;11.85;;;14.70;75.10;;;;;;4984478;28;20023;-68
2022/03/28 07:45:48;;;;;;;30.63;12.13;;;14.70;75.50;;;;;;4975172;28;20027;-67
2022/03/28 07:48:14;;;;;;;20.60;10.30;;;14.80;75.80;;;;;;4979049;28;20034;-67
2022/03/28 07:50:40;;;;;;;28.38;11.93;;;14.80;76.00;;;;;;4984221;28;20545;-68
2022/03/28 07:53:06;;;;;;;26.55;12.70;;;14.80;76.00;;;;;;4987459;28;20023;-68
2022/03/28 07:55:32;;;;;;;22.95;11.52;;;14.90;75.90;;;;;;4990259;28;20483;-66
2022/03/28 07:58:01;;;;;;;24.27;12.13;;;14.90;76.00;;;;;;4993400;28;20050;-64
2022/03/28 08:00:29;;;;;;;28.08;11.50;;;14.90;76.10;;;;;;4994556;28;20033;-67
2022/03/28 08:02:55;;;;;;;24.23;11.98;;;15.00;76.00;;;;;;4985214;28;20060;-67
2022/03/28 08:05:21;;;;;;;19.63;9.00;;;15.00;75.80;;;;;;4991174;28;20030;-68
2022/03/28 08:07:51;;;;;;;29.45;13.80;;;15.00;75.70;;;;;;4993498;28;20027;-63
2022/03/28 08:10:18;;;;;;;27.83;12.98;;;15.10;75.60;;;;;;4990314;28;20050;-67
2022/03/28 08:12:43;;;;;;;24.23;12.95;;;15.10;75.50;;;;;;4978054;28;20073;-67
2022/03/28 08:15:11;;;;;;;21.80;10.02;;;15.20;75.50;;;;;;4980903;28;20058;-63
2022/03/28 08:17:38;;;;;;;17.10;7.53;;;15.20;75.30;;;;;;4993280;28;20036;-67
2022/03/28 08:20:06;;;;;;;19.88;7.60;;;15.20;75.20;;;;;;4984765;28;20076;-67
2022/03/28 08:22:32;;;;;;;17.40;9.20;;;15.20;75.10;;;;;;4977031;28;20026;-68
2022/03/28 08:24:58;;;;;;;16.42;7.68;;;15.20;75.20;;;;;;4974173;28;20033;-65
2022/03/28 08:27:23;;;;;;;24.10;10.45;;;15.30;75.00;;;;;;4983884;28;20030;-66
2022/03/28 08:29:49;;;;;;;19.02;8.38;;;15.30;75.10;;;;;;4986852;28;20117;-66
2022/03/28 08:32:15;;;;;;;18.05;9.15;;;15.30;74.90;;;;;;4984625;28;20895;-64
2022/03/28 08:34:41;;;;;;;17.48;9.98;;;15.30;74.80;;;;;;4985044;28;20039;-66
2022/03/28 08:37:09;;;;;;;27.27;14.93;;;15.40;74.80;;;;;;4984267;28;20027;-66
2022/03/28 08:39:35;;;;;;;18.58;10.30;;;15.40;74.70;;;;;;4976375;28;20018;-67
2022/03/28 08:42:01;;;;;;;20.10;10.18;;;15.50;74.50;;;;;;4991874;28;20045;-67
2022/03/28 08:44:27;;;;;;;20.80;10.15;;;15.50;74.40;;;;;;4987681;28;20030;-61
2022/03/28 08:46:55;;;;;;;14.80;7.95;;;15.50;74.40;;;;;;4983484;28;20451;-67
2022/03/28 08:49:20;;;;;;;19.10;10.05;;;15.50;74.20;;;;;;4985329;28;20045;-67
2022/03/28 08:51:46;;;;;;;18.02;10.70;;;15.50;74.70;;;;;;4984426;28;20559;-65
2022/03/28 08:54:14;;;;;;;16.23;9.52;;;15.60;74.10;;;;;;4988395;28;20506;-66
2022/03/28 08:56:40;;;;;;;18.75;8.80;;;15.60;74.00;;;;;;4983683;28;20054;-67
2022/03/28 08:59:05;;;;;;;14.23;7.75;;;15.60;73.90;;;;;;4981567;28;20027;-65
2022/03/28 09:01:32;;;;;;;12.77;8.15;;;15.70;73.90;;;;;;4981762;28;20475;-67
2022/03/28 09:04:06;;;;;;;16.52;9.00;;;15.70;73.80;;;;;;4983939;28;20022;-67
2022/03/28 09:06:39;;;;;;;14.90;7.97;;;15.70;73.70;;;;;;4980603;28;20118;-67
2022/03/28 09:09:28;;;;;;;20.80;13.50;;;15.70;73.70;;;;;;4979782;28;20432;-66
2022/03/28 09:11:56;;;;;;;28.27;17.30;;;15.80;73.70;;;;;;4982971;28;20468;-61
2022/03/28 09:14:33;;;;;;;22.02;13.85;;;15.80;73.90;;;;;;4984542;28;20110;-66
2022/03/28 09:17:09;;;;;;;21.70;13.68;;;15.80;73.20;;;;;;4988254;28;20569;-67
2022/03/28 09:19:44;;;;;;;26.65;15.38;;;15.80;73.70;;;;;;4992383;28;20030;-68
2022/03/28 09:22:15;;;;;;;26.70;13.88;;;15.80;73.80;;;;;;4991900;28;20053;-65
2022/03/28 09:24:42;;;;;;;24.33;15.32;;;15.80;74.00;;;;;;4982279;28;20029;-68
2022/03/28 09:27:13;;;;;;;26.45;16.73;;;15.90;74.00;;;;;;4976197;28;20030;-67
2022/03/28 09:29:59;;;;;;;25.50;16.65;;;15.90;73.90;;;;;;4965966;28;20018;-68
2022/03/28 09:32:28;;;;;;;23.73;17.58;;;15.90;73.60;;;;;;4996892;28;20034;-68
2022/03/28 09:35:23;;;;;;;25.60;16.98;;;15.90;73.90;;;;;;4990050;28;20109;-65
2022/03/28 09:37:55;;;;;;;27.05;17.20;;;16.00;73.40;;;;;;4990062;28;20064;-67
2022/03/28 09:40:32;;;;;;;23.20;18.13;;;16.00;73.20;;;;;;4982107;28;20440;-64
2022/03/28 09:42:59;;;;;;;23.80;17.75;;;16.00;73.10;;;;;;4985230;28;20030;-67
2022/03/28 09:45:29;;;;;;;24.52;17.92;;;16.00;72.60;;;;;;4989920;28;20395;-64
2022/03/28 09:47:59;;;;;;;22.17;16.52;;;16.00;72.10;;;;;;4988571;28;20764;-67
2022/03/28 09:50:40;;;;;;;23.50;16.30;;;16.00;72.40;;;;;;4982788;28;20161;-67
2022/03/28 09:53:28;;;;;;;21.98;16.02;;;16.10;72.30;;;;;;4982878;28;20018;-66
2022/03/28 09:56:00;;;;;;;23.38;15.35;;;16.10;71.70;;;;;;4965288;28;20392;-67
2022/03/28 09:58:48;;;;;;;22.05;15.98;;;16.10;71.80;;;;;;4983223;28;20035;-67
2022/03/28 10:01:21;;;;;;;22.58;16.48;;;16.10;71.70;;;;;;4989259;28;20023;-66
2022/03/28 10:03:49;;;;;;;21.50;14.45;;;16.10;72.00;;;;;;4988280;28;20101;-61
2022/03/28 10:06:16;;;;;;;23.35;16.25;;;16.10;72.10;;;;;;4986797;28;20038;-67
2022/03/28 10:08:43;;;;;;;26.33;18.23;;;16.30;67.70;;;;;;4978152;28;20026;-67
2022/03/28 10:11:10;;;;;;;21.80;16.15;;;16.10;68.10;;;;;;4996993;28;20109;-68
2022/03/28 10:13:36;;;;;;;25.48;18.50;;;16.20;68.40;;;;;;4996101;28;20033;-68
2022/03/28 10:16:03;;;;;;;22.55;16.23;;;15.90;70.10;;;;;;4992459;28;20083;-65
2022/03/28 10:18:31;;;;;;;29.60;17.80;;;15.80;69.80;;;;;;4989007;28;20023;-65
2022/03/28 10:21:00;;;;;;;22.60;14.38;;;15.80;71.40;;;;;;4979735;28;20117;-66
2022/03/28 10:23:33;;;;;;;19.70;13.45;;;15.80;68.90;;;;;;4976182;28;20030;-66
2022/03/28 10:26:00;;;;;;;20.63;14.43;;;15.90;69.20;;;;;;4981417;28;20039;-65
2022/03/28 10:28:26;;;;;;;22.52;13.93;;;15.90;68.90;;;;;;4995700;28;20030;-67
2022/03/28 10:31:15;;;;;;;23.80;14.52;;;15.70;69.10;;;;;;4995807;28;20022;-62
2022/03/28 10:33:52;;;;;;;22.23;13.23;;;15.80;69.80;;;;;;4996045;28;20117;-67
2022/03/28 10:36:30;;;;;;;24.95;14.90;;;15.90;69.50;;;;;;4995656;28;20506;-67
2022/03/28 10:39:35;;;;;;;21.05;12.95;;;15.80;69.30;;;;;;4993793;28;20065;-66
2022/03/28 10:42:27;;;;;;;26.67;13.32;;;15.90;68.90;;;;;;4978749;28;20027;-67
2022/03/28 10:45:03;;;;;;;17.23;11.85;;;16.10;71.50;;;;;;4991588;28;20035;-67
2022/03/28 10:47:42;;;;;;;16.45;9.60;;;16.20;71.60;;;;;;4992339;28;20073;-67
2022/03/28 10:50:09;;;;;;;18.10;10.60;;;16.30;72.70;;;;;;4995724;28;20034;-62
2022/03/28 10:52:35;;;;;;;17.00;12.88;;;16.30;72.10;;;;;;4994930;28;20073;-65
2022/03/28 10:55:09;;;;;;;20.45;12.75;;;16.40;71.50;;;;;;4994653;28;20038;-59
2022/03/28 10:57:35;;;;;;;16.52;12.73;;;16.40;69.90;;;;;;4991385;28;20019;-67
2022/03/28 11:00:08;;;;;;;19.45;11.23;;;16.40;68.80;;;;;;4990319;28;20078;-67
2022/03/28 11:02:35;;;;;;;16.92;12.63;;;16.40;67.80;;;;;;4986610;28;20018;-64
2022/03/28 11:05:12;;;;;;;22.73;10.73;;;16.40;68.00;;;;;;4993938;28;20439;-67
2022/03/28 11:07:37;;;;;;;17.42;10.77;;;16.50;67.20;;;;;;4994700;28;20039;-67
2022/03/28 11:10:15;;;;;;;22.70;12.50;;;16.40;68.40;;;;;;4989095;28;20030;-67
2022/03/28 11:12:41;;;;;;;21.13;12.27;;;16.50;68.20;;;;;;4993112;28;20038;-67
2022/03/28 11:15:21;;;;;;;16.38;10.25;;;16.50;67.80;;;;;;4995004;28;20030;-66
2022/03/28 11:17:57;;;;;;;19.05;11.73;;;16.50;67.00;;;;;;4993845;28;20502;-67
2022/03/28 11:20:24;;;;;;;20.33;12.85;;;16.50;67.90;;;;;;4991347;28;20067;-64
2022/03/28 11:22:54;;;;;;;19.50;12.90;;;16.50;68.10;;;;;;4985287;28;20011;-65
2022/03/28 11:25:41;;;;;;;20.35;15.00;;;16.60;68.30;;;;;;4990292;28;20031;-66
2022/03/28 11:28:12;;;;;;;21.00;13.13;;;16.60;68.10;;;;;;4976394;28;20043;-66
2022/03/28 11:30:47;;;;;;;17.10;11.60;;;16.60;68.60;;;;;;4977527;28;20092;-66
2022/03/28 11:33:17;;;;;;;15.98;12.45;;;16.60;69.20;;;;;;4986464;28;20415;-67
2022/03/28 11:35:54;;;;;;;19.98;12.07;;;16.60;68.50;;;;;;4994797;28;20057;-67
2022/03/28 11:38:28;;;;;;;17.38;11.15;;;16.60;68.30;;;;;;4994940;28;20026;-66
2022/03/28 11:40:55;;;;;;;21.90;11.40;;;16.60;68.30;;;;;;4983150;28;20027;-67
2022/03/28 11:43:28;;;;;;;17.45;11.35;;;16.70;68.60;;;;;;4986003;28;20042;-67
2022/03/28 11:45:54;;;;;;;14.45;10.98;;;16.70;68.00;;;;;;4989356;28;20126;-67
2022/03/28 11:48:21;;;;;;;13.32;7.05;;;16.70;68.10;;;;;;4990279;28;20058;-67
2022/03/28 11:50:47;;;;;;;14.63;9.32;;;16.70;69.80;;;;;;4988557;28;20583;-67
2022/03/28 11:53:16;;;;;;;15.05;9.02;;;16.70;69.50;;;;;;4991185;28;20033;-66
2022/03/28 11:55:53;;;;;;;16.52;11.85;;;16.80;70.20;;;;;;4993248;28;20097;-67
2022/03/28 11:58:39;;;;;;;13.13;7.47;;;16.80;68.40;;;;;;4989238;28;20081;-67
2022/03/28 12:01:10;;;;;;;15.85;6.28;;;16.80;69.90;;;;;;4984310;28;20030;-67
2022/03/28 12:03:37;;;;;;;18.90;11.63;;;16.80;70.70;;;;;;4992681;28;20415;-67
2022/03/28 12:06:04;;;;;;;17.05;11.95;;;16.80;68.50;;;;;;4975287;28;20483;-67
2022/03/28 12:08:30;;;;;;;15.55;10.30;;;16.80;67.80;;;;;;4983666;28;20049;-67
2022/03/28 12:10:56;;;;;;;13.02;8.32;;;16.90;69.00;;;;;;4993899;28;20468;-64
2022/03/28 12:13:23;;;;;;;19.92;11.07;;;16.90;69.20;;;;;;4979969;28;20109;-66
2022/03/28 12:15:51;;;;;;;13.38;8.30;;;16.90;68.80;;;;;;4986052;28;20026;-67
2022/03/28 12:18:20;;;;;;;17.90;11.60;;;16.90;69.50;;;;;;4991510;28;20045;-65
2022/03/28 12:20:53;;;;;;;16.30;10.13;;;17.00;68.50;;;;;;4977918;28;20060;-66
2022/03/28 12:23:21;;;;;;;14.98;7.53;;;16.90;68.70;;;;;;4974841;28;20050;-63
2022/03/28 12:25:51;;;;;;;12.57;8.23;;;17.00;69.90;;;;;;4974365;28;20037;-67
2022/03/28 12:28:24;;;;;;;13.82;7.28;;;17.00;70.20;;;;;;4974707;28;20560;-67
2022/03/28 12:30:53;;;;;;;12.13;5.97;;;17.00;70.30;;;;;;4992824;28;20044;-64
2022/03/28 12:33:19;;;;;;;12.30;6.57;;;17.00;70.70;;;;;;4975450;28;20031;-65